Time;durP1;ratioP1;P1;durP2;ratioP2;P2;SDS_P1;SDS_P2;PMS_P1;PMS_P2;Temp;Humidity;BMP_temperature;BMP_pressure;BME280_temperature;BME280_humidity;BME280_pressure;Samples;Min_cycle;Max_cycle;Signal;HPM_P1;HPM_P2
2022/03/11 00:01:36;;;;;;;0.80;0.80;;;;;;;;;;1774303;81;26232;-39
2022/03/11 00:04:04;;;;;;;1.07;0.88;;;;;;;;;;1774301;80;26323;-40
2022/03/11 00:06:31;;;;;;;0.80;0.80;;;;;;;;;;1789823;79;26312;-40
2022/03/11 00:08:59;;;;;;;1.17;1.00;;;;;;;;;;1823475;78;26266;-40
2022/03/11 00:11:26;;;;;;;1.00;1.00;;;;;;;;;;1839532;77;25741;-40
2022/03/11 00:13:53;;;;;;;1.47;0.90;;;;;;;;;;1845306;77;26863;-40
2022/03/11 00:16:20;;;;;;;0.95;0.93;;;;;;;;;;1834996;77;26805;-40
2022/03/11 00:18:48;;;;;;;1.00;1.00;;;;;;;;;;1828714;77;26325;-40
2022/03/11 00:21:16;;;;;;;0.90;0.90;;;;;;;;;;1834510;77;26765;-40
2022/03/11 00:23:44;;;;;;;0.90;0.90;;;;;;;;;;1834716;77;26267;-41
2022/03/11 00:26:11;;;;;;;0.90;0.90;;;;;;;;;;1834802;77;26257;-41
2022/03/11 00:28:39;;;;;;;0.80;0.80;;;;;;;;;;1837312;77;26285;-42
2022/03/11 00:31:06;;;;;;;0.93;0.93;;;;;;;;;;1834115;77;26285;-40
2022/03/11 00:33:35;;;;;;;0.80;0.80;;;;;;;;;;1833361;77;25755;-41
2022/03/11 00:36:03;;;;;;;0.75;0.75;;;;;;;;;;1847739;77;25619;-42
2022/03/11 00:38:30;;;;;;;2.42;0.90;;;;;;;;;;1842225;77;26262;-40
2022/03/11 00:40:58;;;;;;;0.80;0.80;;;;;;;;;;1834676;77;26314;-41
2022/03/11 00:43:26;;;;;;;1.82;1.15;;;;;;;;;;1854189;77;26577;-41
2022/03/11 00:45:54;;;;;;;0.80;0.80;;;;;;;;;;1834797;77;26706;-40
2022/03/11 00:48:21;;;;;;;0.80;0.80;;;;;;;;;;1833497;77;26278;-40
2022/03/11 00:50:49;;;;;;;0.80;0.80;;;;;;;;;;1834925;77;26738;-40
2022/03/11 00:53:16;;;;;;;0.80;0.80;;;;;;;;;;1835515;77;26293;-41
2022/03/11 00:55:43;;;;;;;1.00;1.00;;;;;;;;;;1815728;77;26266;-43
2022/03/11 00:58:11;;;;;;;0.78;0.78;;;;;;;;;;1817731;77;25703;-42
2022/03/11 01:00:38;;;;;;;0.95;0.95;;;;;;;;;;1834348;77;26392;-40
2022/03/11 01:03:05;;;;;;;1.00;1.00;;;;;;;;;;1834704;77;26666;-41
2022/03/11 01:05:33;;;;;;;0.90;0.90;;;;;;;;;;1838742;77;25289;-41
2022/03/11 01:08:00;;;;;;;0.93;0.93;;;;;;;;;;1820563;77;26303;-40
2022/03/11 01:10:27;;;;;;;1.15;1.00;;;;;;;;;;1825490;77;25764;-41
2022/03/11 01:12:55;;;;;;;0.80;0.80;;;;;;;;;;1806127;77;26758;-40
2022/03/11 01:15:22;;;;;;;0.90;0.90;;;;;;;;;;1832644;77;26334;-40
2022/03/11 01:17:50;;;;;;;0.90;0.90;;;;;;;;;;1808513;78;26282;-40
2022/03/11 01:20:17;;;;;;;1.07;0.90;;;;;;;;;;1830396;78;26927;-41
2022/03/11 01:22:45;;;;;;;0.80;0.80;;;;;;;;;;1816301;78;26337;-41
2022/03/11 01:25:12;;;;;;;0.90;0.90;;;;;;;;;;1812048;77;26313;-41
2022/03/11 01:27:40;;;;;;;0.80;0.80;;;;;;;;;;1821682;78;26288;-40
2022/03/11 01:30:09;;;;;;;0.82;0.82;;;;;;;;;;1813185;78;26299;-41
2022/03/11 01:32:36;;;;;;;0.90;0.90;;;;;;;;;;1824984;78;26610;-41
2022/03/11 01:35:04;;;;;;;0.90;0.90;;;;;;;;;;1812716;78;26256;-41
2022/03/11 01:37:31;;;;;;;0.80;0.80;;;;;;;;;;1812629;77;26356;-41
2022/03/11 01:39:58;;;;;;;0.70;0.70;;;;;;;;;;1808314;77;26398;-40
2022/03/11 01:42:26;;;;;;;0.95;0.95;;;;;;;;;;1808762;78;26321;-44
2022/03/11 01:44:53;;;;;;;0.85;0.85;;;;;;;;;;1807972;77;26333;-40
2022/03/11 01:47:21;;;;;;;0.80;0.80;;;;;;;;;;1816092;77;26295;-40
2022/03/11 01:49:49;;;;;;;1.12;0.90;;;;;;;;;;1820275;77;27316;-41
2022/03/11 01:52:17;;;;;;;0.80;0.80;;;;;;;;;;1838180;77;26320;-41
2022/03/11 01:54:45;;;;;;;3.02;1.12;;;;;;;;;;1814546;78;26684;-40
2022/03/11 01:57:13;;;;;;;0.80;0.80;;;;;;;;;;1808188;77;26287;-42
2022/03/11 01:59:41;;;;;;;0.90;0.90;;;;;;;;;;1808819;77;26323;-40
2022/03/11 02:02:08;;;;;;;0.80;0.80;;;;;;;;;;1809667;78;26687;-40
2022/03/11 02:04:36;;;;;;;0.90;0.90;;;;;;;;;;1811057;78;26279;-40
2022/03/11 02:07:04;;;;;;;0.88;0.88;;;;;;;;;;1808714;78;26299;-40
2022/03/11 02:09:32;;;;;;;0.78;0.78;;;;;;;;;;1810193;77;25738;-41
2022/03/11 02:11:59;;;;;;;0.70;0.70;;;;;;;;;;1827358;77;26502;-41
2022/03/11 02:14:27;;;;;;;0.80;0.80;;;;;;;;;;1809388;78;26376;-42
2022/03/11 02:16:55;;;;;;;0.80;0.80;;;;;;;;;;1824087;77;26408;-41
2022/03/11 02:19:24;;;;;;;0.93;0.93;;;;;;;;;;1823796;78;25672;-40
2022/03/11 02:21:53;;;;;;;0.90;0.90;;;;;;;;;;1808563;78;26872;-40
2022/03/11 02:24:22;;;;;;;0.72;0.72;;;;;;;;;;1829235;77;26663;-40
2022/03/11 02:26:50;;;;;;;0.70;0.70;;;;;;;;;;1820542;78;26350;-40
2022/03/11 02:29:17;;;;;;;0.80;0.80;;;;;;;;;;1806446;77;26232;-40
2022/03/11 02:31:44;;;;;;;0.70;0.70;;;;;;;;;;1808907;78;26321;-40
2022/03/11 02:34:11;;;;;;;0.72;0.72;;;;;;;;;;1826537;78;26315;-40
2022/03/11 02:36:38;;;;;;;0.80;0.80;;;;;;;;;;1808710;78;26279;-40
2022/03/11 02:39:07;;;;;;;0.80;0.80;;;;;;;;;;1808726;77;26264;-40
2022/03/11 02:41:36;;;;;;;0.80;0.80;;;;;;;;;;1808575;78;26349;-40
2022/03/11 02:44:05;;;;;;;0.90;0.90;;;;;;;;;;1816622;78;26236;-40
2022/03/11 02:46:33;;;;;;;1.00;1.00;;;;;;;;;;1821016;77;26400;-40
2022/03/11 02:49:00;;;;;;;0.80;0.80;;;;;;;;;;1808140;78;26276;-41
2022/03/11 02:51:27;;;;;;;0.78;0.78;;;;;;;;;;1808550;78;26342;-40
2022/03/11 02:53:55;;;;;;;0.90;0.90;;;;;;;;;;1805915;78;26272;-40
2022/03/11 02:56:23;;;;;;;0.80;0.80;;;;;;;;;;1812446;78;26261;-41
2022/03/11 02:58:50;;;;;;;0.88;0.82;;;;;;;;;;1812117;78;25742;-41
2022/03/11 03:01:17;;;;;;;2.65;0.90;;;;;;;;;;1812825;78;26258;-41
2022/03/11 03:03:44;;;;;;;0.80;0.80;;;;;;;;;;1802190;78;26330;-39
2022/03/11 03:06:12;;;;;;;0.90;0.90;;;;;;;;;;1808155;77;26334;-40
2022/03/11 03:08:39;;;;;;;0.90;0.90;;;;;;;;;;1803625;77;26322;-40
2022/03/11 03:11:08;;;;;;;0.90;0.90;;;;;;;;;;1808566;78;26224;-40
2022/03/11 03:13:36;;;;;;;0.80;0.80;;;;;;;;;;1809948;77;26291;-43
2022/03/11 03:16:03;;;;;;;0.80;0.80;;;;;;;;;;1811083;78;26271;-42
2022/03/11 03:18:30;;;;;;;1.95;1.07;;;;;;;;;;1786277;78;26377;-43
2022/03/11 03:20:58;;;;;;;1.27;0.90;;;;;;;;;;1811900;77;26279;-40
2022/03/11 03:23:26;;;;;;;0.78;0.78;;;;;;;;;;1821025;78;26327;-41
2022/03/11 03:25:54;;;;;;;0.75;0.72;;;;;;;;;;1814531;78;26324;-40
2022/03/11 03:28:21;;;;;;;0.88;0.88;;;;;;;;;;1832566;77;26362;-40
2022/03/11 03:30:48;;;;;;;0.90;0.90;;;;;;;;;;1812570;78;26272;-40
2022/03/11 03:33:15;;;;;;;0.90;0.90;;;;;;;;;;1808490;78;25634;-40
2022/03/11 03:35:43;;;;;;;0.80;0.80;;;;;;;;;;1808684;78;26778;-43
2022/03/11 03:38:10;;;;;;;0.82;0.82;;;;;;;;;;1808050;78;26285;-40
2022/03/11 03:40:37;;;;;;;0.90;0.90;;;;;;;;;;1811964;77;25392;-41
2022/03/11 03:43:04;;;;;;;0.90;0.90;;;;;;;;;;1810320;78;26781;-43
2022/03/11 03:45:32;;;;;;;0.80;0.80;;;;;;;;;;1827949;78;26707;-40
2022/03/11 03:48:00;;;;;;;1.00;1.00;;;;;;;;;;1808724;77;26279;-40
2022/03/11 03:50:28;;;;;;;0.85;0.85;;;;;;;;;;1832240;78;26347;-40
2022/03/11 03:52:56;;;;;;;0.70;0.70;;;;;;;;;;1828195;77;26220;-40
2022/03/11 03:55:23;;;;;;;1.10;1.00;;;;;;;;;;1808137;78;26263;-40
2022/03/11 03:57:50;;;;;;;0.78;0.78;;;;;;;;;;1808529;78;26210;-41
2022/03/11 04:00:18;;;;;;;0.90;0.80;;;;;;;;;;1807377;78;26504;-40
2022/03/11 04:02:46;;;;;;;1.07;0.80;;;;;;;;;;1790456;78;26274;-43
2022/03/11 04:05:14;;;;;;;1.10;0.90;;;;;;;;;;1790647;77;26352;-45
2022/03/11 04:07:46;;;;;;;1.75;0.90;;;;;;;;;;1807091;77;26283;-44
2022/03/11 04:10:14;;;;;;;1.75;0.80;;;;;;;;;;1834694;77;26219;-42
2022/03/11 04:12:41;;;;;;;0.80;0.80;;;;;;;;;;1824934;77;26294;-40
2022/03/11 04:15:09;;;;;;;1.00;1.00;;;;;;;;;;1837027;77;26273;-42
2022/03/11 04:17:36;;;;;;;0.80;0.80;;;;;;;;;;1834717;77;26944;-40
2022/03/11 04:20:04;;;;;;;0.93;0.93;;;;;;;;;;1833160;77;26242;-42
2022/03/11 04:22:31;;;;;;;0.85;0.78;;;;;;;;;;1832176;77;26351;-43
2022/03/11 04:24:59;;;;;;;1.00;1.00;;;;;;;;;;1832230;77;25800;-40
2022/03/11 04:27:27;;;;;;;0.88;0.88;;;;;;;;;;1833954;77;26941;-40
2022/03/11 04:29:54;;;;;;;1.15;0.90;;;;;;;;;;1829709;77;26270;-40
2022/03/11 04:32:21;;;;;;;1.00;1.00;;;;;;;;;;1818474;77;26222;-39
2022/03/11 04:34:49;;;;;;;1.95;0.95;;;;;;;;;;1835499;77;26247;-40
2022/03/11 04:37:16;;;;;;;0.80;0.80;;;;;;;;;;1825364;77;26372;-41
2022/03/11 04:39:43;;;;;;;4.33;0.85;;;;;;;;;;1831193;77;26768;-43
2022/03/11 04:42:10;;;;;;;0.90;0.90;;;;;;;;;;1831897;77;26769;-41
2022/03/11 04:44:38;;;;;;;0.72;0.72;;;;;;;;;;1834440;77;26753;-41
2022/03/11 04:47:05;;;;;;;0.88;0.88;;;;;;;;;;1833778;77;26258;-41
2022/03/11 04:49:32;;;;;;;0.82;0.80;;;;;;;;;;1838892;77;26722;-41
2022/03/11 04:52:00;;;;;;;1.02;0.80;;;;;;;;;;1819625;77;26297;-42
2022/03/11 04:54:27;;;;;;;0.80;0.80;;;;;;;;;;1842410;77;26240;-41
2022/03/11 04:56:54;;;;;;;0.78;0.78;;;;;;;;;;1831842;77;26218;-42
2022/03/11 04:59:22;;;;;;;0.90;0.90;;;;;;;;;;1826908;77;26284;-42
2022/03/11 05:01:49;;;;;;;0.80;0.80;;;;;;;;;;1824314;77;25225;-41
2022/03/11 05:04:16;;;;;;;0.80;0.80;;;;;;;;;;1833082;77;26273;-40
2022/03/11 05:06:43;;;;;;;0.98;0.98;;;;;;;;;;1831427;77;26277;-42
2022/03/11 05:09:11;;;;;;;1.25;0.90;;;;;;;;;;1827574;77;26268;-42
2022/03/11 05:11:38;;;;;;;1.85;0.80;;;;;;;;;;1809841;78;26378;-43
2022/03/11 05:14:05;;;;;;;1.65;1.10;;;;;;;;;;1800425;78;26219;-42
2022/03/11 05:16:33;;;;;;;1.25;0.95;;;;;;;;;;1817443;78;26284;-40
2022/03/11 05:19:00;;;;;;;2.87;1.10;;;;;;;;;;1817373;78;26773;-40
2022/03/11 05:21:28;;;;;;;0.93;0.93;;;;;;;;;;1803486;78;26352;-40
2022/03/11 05:23:55;;;;;;;1.92;0.98;;;;;;;;;;1815662;78;26364;-39
2022/03/11 05:26:25;;;;;;;0.90;0.90;;;;;;;;;;1812581;78;26293;-41
2022/03/11 05:28:54;;;;;;;3.62;1.10;;;;;;;;;;1813732;78;26296;-40
2022/03/11 05:31:22;;;;;;;2.87;1.00;;;;;;;;;;1804704;78;26327;-39
2022/03/11 05:33:50;;;;;;;6.67;1.20;;;;;;;;;;1812497;78;27608;-40
2022/03/11 05:36:17;;;;;;;4.42;1.37;;;;;;;;;;1812040;78;26334;-40
2022/03/11 05:38:45;;;;;;;2.75;1.20;;;;;;;;;;1814396;78;25295;-41
2022/03/11 05:41:12;;;;;;;3.70;1.07;;;;;;;;;;1813765;78;26884;-42
2022/03/11 05:43:39;;;;;;;2.37;1.50;;;;;;;;;;1817007;78;26804;-41
2022/03/11 05:46:07;;;;;;;1.30;1.20;;;;;;;;;;1812001;78;26733;-42
2022/03/11 05:48:34;;;;;;;5.05;1.25;;;;;;;;;;1802201;78;25229;-42
2022/03/11 05:51:02;;;;;;;2.08;1.10;;;;;;;;;;1805385;78;27356;-40
2022/03/11 05:53:29;;;;;;;2.92;1.25;;;;;;;;;;1812849;77;26271;-41
2022/03/11 05:55:56;;;;;;;8.95;1.20;;;;;;;;;;1802724;78;26853;-42
2022/03/11 05:58:23;;;;;;;7.83;1.75;;;;;;;;;;1810084;78;26801;-40
2022/03/11 06:00:51;;;;;;;2.87;1.30;;;;;;;;;;1814394;78;27630;-44
2022/03/11 06:03:18;;;;;;;1.50;1.30;;;;;;;;;;1816175;78;26277;-39
2022/03/11 06:05:45;;;;;;;1.95;1.20;;;;;;;;;;1801012;78;26286;-39
2022/03/11 06:08:13;;;;;;;2.47;1.07;;;;;;;;;;1813977;77;26374;-43
2022/03/11 06:10:40;;;;;;;2.15;1.10;;;;;;;;;;1836430;77;25293;-45
2022/03/11 06:13:08;;;;;;;1.10;1.10;;;;;;;;;;1837484;77;26219;-39
2022/03/11 06:15:35;;;;;;;1.45;1.00;;;;;;;;;;1828106;77;26270;-39
2022/03/11 06:18:02;;;;;;;1.12;1.00;;;;;;;;;;1830986;77;26269;-45
2022/03/11 06:20:30;;;;;;;2.90;1.15;;;;;;;;;;1840246;77;26724;-41
2022/03/11 06:22:59;;;;;;;1.72;1.10;;;;;;;;;;1833668;77;26278;-41
2022/03/11 06:25:26;;;;;;;1.60;1.07;;;;;;;;;;1831999;76;26277;-40
2022/03/11 06:27:54;;;;;;;2.67;1.22;;;;;;;;;;1834432;77;25817;-43
2022/03/11 06:30:21;;;;;;;1.72;1.20;;;;;;;;;;1834740;77;26356;-44
2022/03/11 06:32:50;;;;;;;1.15;1.15;;;;;;;;;;1851033;77;26861;-40
2022/03/11 06:35:18;;;;;;;2.25;1.10;;;;;;;;;;1843093;77;26754;-42
2022/03/11 06:37:46;;;;;;;2.50;1.05;;;;;;;;;;1832962;77;26327;-40
2022/03/11 06:40:14;;;;;;;1.20;1.20;;;;;;;;;;1835961;77;26329;-38
2022/03/11 06:42:42;;;;;;;2.83;1.02;;;;;;;;;;1829967;77;26329;-39
2022/03/11 06:45:10;;;;;;;2.75;1.10;;;;;;;;;;1832299;77;26293;-41
2022/03/11 06:47:38;;;;;;;1.87;1.12;;;;;;;;;;1844798;77;26738;-39
2022/03/11 06:50:06;;;;;;;2.35;1.00;;;;;;;;;;1839839;77;25341;-43
2022/03/11 06:52:33;;;;;;;3.40;1.20;;;;;;;;;;1813055;77;26310;-39
2022/03/11 06:55:01;;;;;;;1.00;1.00;;;;;;;;;;1845053;77;26357;-39
2022/03/11 06:57:29;;;;;;;1.35;1.10;;;;;;;;;;1828114;77;26974;-43
2022/03/11 06:59:56;;;;;;;1.70;1.30;;;;;;;;;;1822103;77;26352;-43
2022/03/11 07:02:23;;;;;;;3.35;1.00;;;;;;;;;;1842856;77;26413;-40
2022/03/11 07:04:50;;;;;;;1.07;1.07;;;;;;;;;;1835913;77;26730;-42
2022/03/11 07:07:18;;;;;;;1.00;1.00;;;;;;;;;;1830730;77;26956;-40
2022/03/11 07:09:45;;;;;;;5.58;1.22;;;;;;;;;;1837298;77;26824;-38
2022/03/11 07:12:12;;;;;;;2.90;1.00;;;;;;;;;;1838956;77;26259;-41
2022/03/11 07:14:43;;;;;;;1.10;1.10;;;;;;;;;;1834420;77;26369;-43
2022/03/11 07:17:10;;;;;;;1.00;1.00;;;;;;;;;;1833863;77;26379;-40
2022/03/11 07:19:37;;;;;;;1.47;1.05;;;;;;;;;;1844426;76;26289;-40
2022/03/11 07:22:05;;;;;;;1.52;1.10;;;;;;;;;;1832132;77;26734;-40
2022/03/11 07:24:33;;;;;;;1.20;1.10;;;;;;;;;;1824471;77;26278;-40
2022/03/11 07:27:01;;;;;;;1.22;1.12;;;;;;;;;;1815887;77;26785;-39
2022/03/11 07:29:29;;;;;;;1.62;1.15;;;;;;;;;;1824872;77;25277;-45
2022/03/11 07:31:56;;;;;;;1.15;1.10;;;;;;;;;;1837220;77;26616;-40
2022/03/11 07:34:23;;;;;;;0.98;0.98;;;;;;;;;;1837588;77;26332;-41
2022/03/11 07:36:51;;;;;;;1.32;1.20;;;;;;;;;;1838092;77;26608;-43
2022/03/11 07:39:19;;;;;;;1.25;1.15;;;;;;;;;;1843327;77;26270;-38
2022/03/11 07:41:46;;;;;;;3.42;1.05;;;;;;;;;;1836741;77;26334;-43
2022/03/11 07:44:13;;;;;;;1.65;1.20;;;;;;;;;;1845656;77;26305;-41
2022/03/11 07:46:41;;;;;;;1.05;1.05;;;;;;;;;;1839301;77;26368;-41
2022/03/11 07:49:09;;;;;;;0.90;0.90;;;;;;;;;;1848952;77;26777;-38
2022/03/11 07:51:36;;;;;;;1.00;1.00;;;;;;;;;;1845266;77;26329;-39
2022/03/11 07:54:03;;;;;;;1.12;1.10;;;;;;;;;;1839742;77;26324;-38
2022/03/11 07:56:31;;;;;;;1.85;1.10;;;;;;;;;;1824282;77;26764;-47
2022/03/11 07:58:59;;;;;;;1.10;1.00;;;;;;;;;;1834558;77;26930;-41
2022/03/11 08:01:27;;;;;;;1.07;1.07;;;;;;;;;;1838706;77;26324;-39
2022/03/11 08:03:54;;;;;;;0.90;0.90;;;;;;;;;;1834888;77;26286;-40
2022/03/11 08:06:22;;;;;;;1.10;1.10;;;;;;;;;;1837445;77;26938;-44
2022/03/11 08:08:49;;;;;;;0.80;0.80;;;;;;;;;;1833800;77;26797;-43
2022/03/11 08:11:16;;;;;;;1.07;0.98;;;;;;;;;;1832421;77;26345;-40
2022/03/11 08:13:44;;;;;;;1.32;1.02;;;;;;;;;;1837915;77;26279;-43
2022/03/11 08:16:12;;;;;;;1.10;1.10;;;;;;;;;;1834048;77;26733;-42
2022/03/11 08:18:39;;;;;;;1.87;0.90;;;;;;;;;;1838871;77;26266;-38
2022/03/11 08:21:08;;;;;;;1.00;1.00;;;;;;;;;;1838524;77;26759;-42
2022/03/11 08:23:35;;;;;;;1.22;1.10;;;;;;;;;;1843681;77;27018;-41
2022/03/11 08:26:03;;;;;;;1.00;1.00;;;;;;;;;;1836680;77;26274;-39
2022/03/11 08:28:30;;;;;;;0.90;0.90;;;;;;;;;;1833567;77;26773;-42
2022/03/11 08:30:57;;;;;;;0.93;0.93;;;;;;;;;;1849390;77;26753;-41
2022/03/11 08:33:25;;;;;;;1.45;1.00;;;;;;;;;;1836987;77;26287;-40
2022/03/11 08:35:53;;;;;;;1.12;1.07;;;;;;;;;;1843453;77;26225;-42
2022/03/11 08:38:21;;;;;;;0.90;0.90;;;;;;;;;;1836029;77;26634;-39
2022/03/11 08:40:48;;;;;;;1.32;1.20;;;;;;;;;;1835873;76;26311;-39
2022/03/11 08:43:16;;;;;;;1.15;1.02;;;;;;;;;;1841456;77;26306;-43
2022/03/11 08:45:43;;;;;;;1.25;1.15;;;;;;;;;;1841100;77;26297;-39
2022/03/11 08:48:11;;;;;;;1.10;1.10;;;;;;;;;;1833483;77;26756;-40
2022/03/11 08:50:38;;;;;;;1.20;1.20;;;;;;;;;;1837206;77;26321;-39
2022/03/11 08:53:05;;;;;;;1.15;1.15;;;;;;;;;;1840371;77;26333;-40
2022/03/11 08:55:33;;;;;;;0.90;0.90;;;;;;;;;;1842412;77;26409;-39
2022/03/11 08:58:00;;;;;;;1.02;1.02;;;;;;;;;;1848072;77;25704;-39
2022/03/11 09:00:27;;;;;;;1.27;1.15;;;;;;;;;;1841463;77;26302;-39
2022/03/11 09:02:55;;;;;;;1.87;1.10;;;;;;;;;;1837182;77;26249;-41
2022/03/11 09:05:22;;;;;;;1.95;1.02;;;;;;;;;;1832849;77;26252;-39
2022/03/11 09:07:49;;;;;;;1.00;1.00;;;;;;;;;;1844750;77;26329;-42
2022/03/11 09:10:18;;;;;;;0.90;0.90;;;;;;;;;;1842596;76;26383;-39
2022/03/11 09:12:46;;;;;;;1.10;1.10;;;;;;;;;;1824919;77;26344;-40
2022/03/11 09:15:14;;;;;;;1.02;1.02;;;;;;;;;;1838991;77;26363;-42
2022/03/11 09:17:44;;;;;;;0.88;0.88;;;;;;;;;;1843774;76;26240;-41
2022/03/11 09:20:12;;;;;;;1.15;1.07;;;;;;;;;;1823788;77;26340;-40
2022/03/11 09:22:40;;;;;;;2.95;1.00;;;;;;;;;;1812473;77;26282;-38
2022/03/11 09:25:09;;;;;;;1.30;1.20;;;;;;;;;;1829930;77;26286;-38
2022/03/11 09:27:36;;;;;;;3.25;0.93;;;;;;;;;;1838322;77;26598;-40
2022/03/11 09:30:08;;;;;;;1.07;1.07;;;;;;;;;;1836977;77;26340;-41
2022/03/11 09:32:37;;;;;;;2.05;1.10;;;;;;;;;;1844655;77;26272;-40
2022/03/11 09:35:07;;;;;;;1.00;1.00;;;;;;;;;;1831656;77;26350;-41
2022/03/11 09:37:35;;;;;;;1.85;1.05;;;;;;;;;;1842742;77;26271;-42
2022/03/11 09:40:04;;;;;;;1.32;1.25;;;;;;;;;;1821481;76;25259;-44
2022/03/11 09:42:31;;;;;;;0.90;0.90;;;;;;;;;;1839887;77;26344;-44
2022/03/11 09:44:59;;;;;;;1.20;0.98;;;;;;;;;;1833481;77;26304;-39
2022/03/11 09:47:26;;;;;;;1.10;1.10;;;;;;;;;;1823752;77;26304;-39
2022/03/11 09:49:54;;;;;;;1.02;0.95;;;;;;;;;;1828072;77;26278;-44
2022/03/11 09:52:23;;;;;;;1.55;1.20;;;;;;;;;;1826811;77;26255;-41
2022/03/11 09:54:51;;;;;;;3.80;1.20;;;;;;;;;;1828069;77;26553;-39
2022/03/11 09:57:22;;;;;;;0.88;0.88;;;;;;;;;;1840111;77;26353;-39
2022/03/11 09:59:50;;;;;;;1.12;1.00;;;;;;;;;;1827781;77;26727;-38
2022/03/11 10:02:18;;;;;;;1.17;1.07;;;;;;;;;;1837001;77;26900;-40
2022/03/11 10:04:47;;;;;;;1.10;1.10;;;;;;;;;;1838377;76;26337;-40
2022/03/11 10:07:31;;;;;;;1.10;1.10;;;;;;;;;;1810492;77;26281;-44
2022/03/11 10:09:59;;;;;;;1.10;1.00;;;;;;;;;;1821843;77;25326;-40
2022/03/11 10:12:28;;;;;;;0.90;0.90;;;;;;;;;;1822423;77;26299;-42
2022/03/11 10:15:05;;;;;;;0.90;0.90;;;;;;;;;;1811348;77;26381;-43
2022/03/11 10:17:39;;;;;;;1.15;1.15;;;;;;;;;;1807829;77;26257;-42
2022/03/11 10:20:08;;;;;;;1.05;1.05;;;;;;;;;;1814924;78;26762;-39
2022/03/11 10:22:36;;;;;;;1.15;1.15;;;;;;;;;;1816164;78;26377;-39
2022/03/11 10:25:04;;;;;;;1.35;1.10;;;;;;;;;;1823006;78;26290;-40
2022/03/11 10:27:33;;;;;;;1.00;1.00;;;;;;;;;;1826281;78;25769;-43
2022/03/11 10:30:04;;;;;;;1.30;1.10;;;;;;;;;;1807774;78;26296;-39
2022/03/11 10:32:31;;;;;;;0.98;0.98;;;;;;;;;;1826401;78;26295;-39
2022/03/11 10:35:00;;;;;;;0.98;0.98;;;;;;;;;;1785306;78;26360;-39
2022/03/11 10:37:27;;;;;;;1.20;1.20;;;;;;;;;;1812179;77;26822;-39
2022/03/11 10:39:55;;;;;;;1.27;1.27;;;;;;;;;;1813300;78;26280;-41
2022/03/11 10:42:24;;;;;;;2.25;1.10;;;;;;;;;;1790938;78;26828;-40
2022/03/11 10:45:01;;;;;;;1.60;1.20;;;;;;;;;;1794872;77;26633;-40
2022/03/11 10:47:30;;;;;;;0.90;0.90;;;;;;;;;;1808092;77;26610;-39
2022/03/11 10:49:58;;;;;;;0.90;0.90;;;;;;;;;;1799439;78;26655;-41
2022/03/11 10:52:30;;;;;;;1.30;1.20;;;;;;;;;;1787598;77;26397;-42
2022/03/11 10:54:58;;;;;;;1.15;1.15;;;;;;;;;;1808529;78;26393;-42
2022/03/11 10:57:26;;;;;;;1.00;1.00;;;;;;;;;;1807973;78;26276;-39
2022/03/11 10:59:54;;;;;;;1.00;1.00;;;;;;;;;;1798221;78;26282;-39
2022/03/11 11:02:21;;;;;;;1.12;1.07;;;;;;;;;;1797873;78;26263;-42
2022/03/11 11:04:49;;;;;;;0.98;0.98;;;;;;;;;;1797320;78;26353;-44
2022/03/11 11:07:16;;;;;;;1.65;1.22;;;;;;;;;;1800399;78;25780;-43
2022/03/11 11:09:44;;;;;;;1.00;1.00;;;;;;;;;;1801640;77;26336;-39
2022/03/11 11:12:11;;;;;;;1.05;1.05;;;;;;;;;;1808255;77;26389;-43
2022/03/11 11:14:38;;;;;;;1.00;1.00;;;;;;;;;;1836839;77;26270;-38
2022/03/11 11:17:06;;;;;;;1.10;1.10;;;;;;;;;;1817635;77;26289;-40
2022/03/11 11:19:34;;;;;;;1.00;1.00;;;;;;;;;;1832293;77;25248;-39
2022/03/11 11:22:01;;;;;;;0.85;0.85;;;;;;;;;;1817464;77;26343;-40
2022/03/11 11:24:29;;;;;;;1.02;1.02;;;;;;;;;;1808842;77;26343;-41
2022/03/11 11:26:57;;;;;;;0.98;0.90;;;;;;;;;;1835670;77;26302;-42
2022/03/11 11:29:29;;;;;;;1.17;1.10;;;;;;;;;;1828814;77;26367;-40
2022/03/11 11:31:57;;;;;;;1.20;1.10;;;;;;;;;;1812479;77;26332;-39
2022/03/11 11:34:25;;;;;;;1.10;1.10;;;;;;;;;;1830405;77;26263;-42
2022/03/11 11:36:53;;;;;;;1.00;1.00;;;;;;;;;;1833669;77;27178;-39
2022/03/11 11:39:22;;;;;;;1.07;1.07;;;;;;;;;;1814821;77;26446;-41
2022/03/11 11:41:54;;;;;;;1.00;1.00;;;;;;;;;;1837476;77;26329;-40
2022/03/11 11:44:24;;;;;;;1.20;1.20;;;;;;;;;;1834252;77;26259;-43
2022/03/11 11:47:09;;;;;;;1.05;1.05;;;;;;;;;;1832937;77;26230;-39
2022/03/11 11:49:41;;;;;;;1.02;1.02;;;;;;;;;;1834729;77;26281;-39
2022/03/11 11:52:11;;;;;;;0.98;0.98;;;;;;;;;;1854861;77;26317;-39
2022/03/11 11:54:38;;;;;;;1.37;1.27;;;;;;;;;;1846002;77;26727;-39
2022/03/11 11:57:07;;;;;;;1.00;1.00;;;;;;;;;;1850023;76;26274;-39
2022/03/11 11:59:37;;;;;;;1.20;1.10;;;;;;;;;;1846516;77;25674;-39
2022/03/11 12:02:06;;;;;;;1.20;1.10;;;;;;;;;;1837999;77;26590;-40
2022/03/11 12:04:38;;;;;;;1.00;1.00;;;;;;;;;;1825499;77;26745;-40
2022/03/11 12:07:09;;;;;;;1.10;1.10;;;;;;;;;;1834940;77;26231;-39
2022/03/11 12:09:45;;;;;;;1.10;1.10;;;;;;;;;;1847352;76;26332;-41
2022/03/11 12:12:22;;;;;;;1.00;1.00;;;;;;;;;;1831878;77;26745;-43
2022/03/11 12:15:08;;;;;;;1.10;1.10;;;;;;;;;;1822785;77;26710;-41
2022/03/11 12:17:42;;;;;;;1.20;1.20;;;;;;;;;;1813112;77;26725;-41
2022/03/11 12:20:23;;;;;;;1.00;1.00;;;;;;;;;;1835611;77;26804;-42
2022/03/11 12:22:57;;;;;;;1.10;1.10;;;;;;;;;;1821243;77;26212;-39
2022/03/11 12:25:26;;;;;;;1.10;1.10;;;;;;;;;;1855381;77;26374;-39
2022/03/11 12:28:00;;;;;;;1.15;1.15;;;;;;;;;;1834475;77;26270;-39
2022/03/11 12:30:32;;;;;;;1.10;1.10;;;;;;;;;;1825273;77;27335;-44
2022/03/11 12:33:03;;;;;;;1.12;1.10;;;;;;;;;;1825262;77;26290;-41
2022/03/11 12:35:31;;;;;;;1.05;1.05;;;;;;;;;;1834667;77;26274;-41
2022/03/11 12:37:59;;;;;;;1.10;1.10;;;;;;;;;;1836828;77;26305;-39
2022/03/11 12:40:27;;;;;;;1.30;1.10;;;;;;;;;;1838064;77;26348;-43
2022/03/11 12:42:58;;;;;;;0.90;0.90;;;;;;;;;;1834310;77;26651;-39
2022/03/11 12:45:30;;;;;;;1.25;1.20;;;;;;;;;;1817948;77;26773;-39
2022/03/11 12:47:57;;;;;;;1.00;1.00;;;;;;;;;;1829369;77;26270;-41
2022/03/11 12:50:26;;;;;;;1.10;1.10;;;;;;;;;;1842728;77;26629;-41
2022/03/11 12:52:55;;;;;;;1.47;1.00;;;;;;;;;;1842138;76;26310;-42
2022/03/11 12:55:25;;;;;;;0.90;0.90;;;;;;;;;;1832924;77;26797;-45
2022/03/11 12:57:53;;;;;;;1.00;1.00;;;;;;;;;;1842569;77;26266;-39
2022/03/11 13:00:24;;;;;;;1.00;1.00;;;;;;;;;;1850736;77;26282;-42
2022/03/11 13:02:52;;;;;;;1.12;1.12;;;;;;;;;;1833661;77;26737;-42
2022/03/11 13:05:21;;;;;;;0.93;0.93;;;;;;;;;;1841639;77;26392;-45
2022/03/11 13:07:48;;;;;;;1.27;0.90;;;;;;;;;;1847413;77;26261;-42
2022/03/11 13:10:17;;;;;;;1.60;1.02;;;;;;;;;;1817055;76;26300;-44
2022/03/11 13:12:45;;;;;;;2.30;1.10;;;;;;;;;;1831939;77;26640;-39
2022/03/11 13:15:16;;;;;;;1.00;1.00;;;;;;;;;;1835428;77;26348;-41
2022/03/11 13:17:44;;;;;;;1.00;1.00;;;;;;;;;;1823582;77;26423;-40
2022/03/11 13:20:29;;;;;;;1.50;1.00;;;;;;;;;;1833263;77;26273;-43
2022/03/11 13:22:58;;;;;;;1.55;1.00;;;;;;;;;;1818363;77;26262;-39
2022/03/11 13:25:29;;;;;;;1.07;1.07;;;;;;;;;;1831600;77;26283;-44
2022/03/11 13:27:58;;;;;;;1.22;1.12;;;;;;;;;;1844576;77;26334;-41
2022/03/11 13:30:30;;;;;;;1.00;1.00;;;;;;;;;;1836312;77;26286;-46
2022/03/11 13:32:57;;;;;;;1.12;1.02;;;;;;;;;;1823076;77;26694;-43
2022/03/11 13:35:28;;;;;;;1.20;1.20;;;;;;;;;;1818298;77;26674;-42
2022/03/11 13:37:58;;;;;;;1.00;1.00;;;;;;;;;;1834730;77;26267;-40
2022/03/11 13:40:26;;;;;;;1.10;1.10;;;;;;;;;;1814183;77;26365;-42
2022/03/11 13:42:57;;;;;;;1.10;1.10;;;;;;;;;;1829766;77;26781;-45
2022/03/11 13:45:28;;;;;;;0.90;0.90;;;;;;;;;;1843961;77;26263;-42
2022/03/11 13:48:01;;;;;;;1.10;1.10;;;;;;;;;;1844047;76;26351;-41
2022/03/11 13:50:29;;;;;;;0.98;0.98;;;;;;;;;;1819453;77;26275;-41
2022/03/11 13:52:58;;;;;;;0.82;0.82;;;;;;;;;;1850001;77;26743;-39
2022/03/11 13:55:33;;;;;;;0.93;0.93;;;;;;;;;;1824545;77;26297;-42
2022/03/11 13:58:13;;;;;;;1.00;1.00;;;;;;;;;;1830354;77;26773;-45
2022/03/11 14:00:40;;;;;;;1.20;1.20;;;;;;;;;;1834084;77;26607;-40
2022/03/11 14:03:18;;;;;;;1.00;1.00;;;;;;;;;;1830205;77;25810;-43
2022/03/11 14:05:47;;;;;;;0.90;0.90;;;;;;;;;;1824425;77;26277;-40
2022/03/11 14:08:16;;;;;;;1.00;1.00;;;;;;;;;;1817180;77;26765;-42
2022/03/11 14:10:45;;;;;;;1.20;1.20;;;;;;;;;;1810481;77;26682;-44
2022/03/11 14:13:16;;;;;;;1.00;1.00;;;;;;;;;;1833790;77;26922;-43
2022/03/11 14:15:47;;;;;;;1.10;1.10;;;;;;;;;;1837309;77;26356;-40
2022/03/11 14:18:15;;;;;;;1.00;1.00;;;;;;;;;;1842919;77;26290;-42
2022/03/11 14:20:44;;;;;;;1.02;1.02;;;;;;;;;;1842816;77;26278;-41
2022/03/11 14:23:11;;;;;;;1.00;0.95;;;;;;;;;;1827249;77;26270;-42
2022/03/11 14:25:38;;;;;;;1.65;1.10;;;;;;;;;;1833451;77;26776;-40
2022/03/11 14:28:07;;;;;;;0.90;0.90;;;;;;;;;;1833630;77;25732;-43
2022/03/11 14:30:38;;;;;;;1.22;1.12;;;;;;;;;;1855178;77;26852;-39
2022/03/11 14:33:06;;;;;;;1.40;1.10;;;;;;;;;;1854275;76;26235;-44
2022/03/11 14:35:33;;;;;;;0.85;0.82;;;;;;;;;;1857013;77;26229;-42
2022/03/11 14:38:02;;;;;;;1.70;1.00;;;;;;;;;;1826348;77;26298;-41
2022/03/11 14:40:29;;;;;;;1.17;1.17;;;;;;;;;;1834337;77;26338;-43
2022/03/11 14:42:57;;;;;;;1.77;1.65;;;;;;;;;;1825613;77;26792;-41
2022/03/11 14:45:25;;;;;;;0.93;0.93;;;;;;;;;;1826915;77;26378;-41
2022/03/11 14:47:53;;;;;;;1.00;1.00;;;;;;;;;;1817612;77;26276;-40
2022/03/11 14:50:20;;;;;;;0.95;0.95;;;;;;;;;;1846255;77;26687;-41